INFORMACIÓN METAR y TAF
METAR FOR EYVI
ADDS - METARS form results

(0200 UTC 16 December 2019)
Data provider http://aviationweather.gov/metar/data/
 
METAR text: EYVI 160157Z 21013KT 9999 SCT009 02/01 Q1004 R19/2/0295 NOSIG
Conditions at: EYVI (VILNIUS INTL , LT) observed 0157 UTC 16 December 2019
Temperature: 2.0°C (36°F)
Dewpoint: 1.0°C (34°F) [RH = 93%]
Pressure (altimeter): 29.65 inches Hg (1004.0 mb)
Winds: from the SSW (210 degrees) at 15 MPH (13 knots; 6.7 m/s)
Visibility: 6 or more miles (10+ km)
Ceiling: at least 12,000 feet AGL
Clouds: scattered clouds at 900 feet AGL
Weather: no significant weather observed at this time

METAR text: EYVI 160150Z 21012KT 9999 SCT012 02/01 Q1004 R19/2/0295 NOSIG
Conditions at: EYVI (VILNIUS INTL , LT) observed 0150 UTC 16 December 2019
Temperature: 2.0°C (36°F)
Dewpoint: 1.0°C (34°F) [RH = 93%]
Pressure (altimeter): 29.65 inches Hg (1004.0 mb)
Winds: from the SSW (210 degrees) at 14 MPH (12 knots; 6.2 m/s)
Visibility: 6 or more miles (10+ km)
Ceiling: at least 12,000 feet AGL
Clouds: scattered clouds at 1200 feet AGL
Weather: no significant weather observed at this time

METAR text: EYVI 160120Z 21010KT 9999 FEW012 01/01 Q1004 R19/2/0295 NOSIG
Conditions at: EYVI (VILNIUS INTL , LT) observed 0120 UTC 16 December 2019
Temperature: 1.0°C (34°F)
Dewpoint: 1.0°C (34°F) [RH = 100%]
Pressure (altimeter): 29.65 inches Hg (1004.0 mb)
Winds: from the SSW (210 degrees) at 12 MPH (10 knots; 5.1 m/s)
Visibility: 6 or more miles (10+ km)
Ceiling: at least 12,000 feet AGL
Clouds: few clouds at 1200 feet AGL
Weather: no significant weather observed at this time

Forecast for: EYVI (VILNIUS INTL , LT)
Text: TAF EYVI 152300Z 1600/1624 20012KT 9000 BKN003
Forecast period: 0000 to 0200 UTC 16 December 2019
Forecast type: FROM: standard forecast or significant change
Winds: from the SSW (200 degrees) at 14 MPH (12 knots; 6.2 m/s)
Visibility: 6 miles (9 km)
Ceiling: 300 feet AGL
Clouds: broken clouds at 300 feet AGL
Weather: no significant weather forecast for this period
Text: BECMG 1602/1604 26018G28KT BKN012
Forecast period: 0200 to 1200 UTC 16 December 2019
Forecast type: BECOMING: Conditions expected to become as follows by 0400 UTC 16 December 2019
Winds: from the W (260 degrees) at 21 MPH (18 knots; 9.3 m/s)
gusting to 32 MPH (28 knots; 14.4 m/s)
Visibility: 6 miles (9 km)
Ceiling: 1200 feet AGL
Clouds: broken clouds at 1200 feet AGL
Weather: no significant weather forecast for this period
Text: BECMG 1612/1614 20008KT
Forecast period: 1200 to 1600 UTC 16 December 2019
Forecast type: BECOMING: Conditions expected to become as follows by 1400 UTC 16 December 2019
Winds: from the SSW (200 degrees) at 9 MPH (8 knots; 4.1 m/s)
Visibility: 6 miles (9 km)
Ceiling: 1200 feet AGL
Clouds: broken clouds at 1200 feet AGL
Weather: no significant weather forecast for this period
Text: BECMG 1616/1618 3000 BR OVC003
Forecast period: 1600 UTC 16 December 2019 to 0000 UTC 17 December 2019
Forecast type: BECOMING: Conditions expected to become as follows by 1800 UTC 16 December 2019
Winds: from the SSW (200 degrees) at 9 MPH (8 knots; 4.1 m/s)
Visibility: 1.86 miles (2.99 km)
Ceiling: 300 feet AGL
Clouds: overcast cloud deck at 300 feet AGL
Weather: BR  (mist)

MAPA DE AEROPUERTO

INFORMACIÓN DE PISTA
Pista 02 Longitud 8251 ft Ancho 164 ft
Elevación 594 ft Umbral desplazado 0 ft Rumbo de pista 22
Pista 20 Longitud 8251 ft Ancho 164 ft
Elevación 646 ft Umbral desplazado 0 ft Rumbo de pista 202

FRECUANCIAS DEL AEROPUERTO
Tipo APP Nombre APP Frecuencia 120.7 MHZ
Tipo ATIS Nombre ATIS Frecuencia 125.8 MHZ
Tipo TWR Nombre TWR Frecuencia 118.2 MHZ

RADIO AYUDAS DEL AEROPUERTO
Tipo NDB Nombre Vilnius Frecuencia 385 KHZ
Tipo VOR-DME Nombre Vilnius Frecuencia 113800 KHZ